Time;durP1;ratioP1;P1;durP2;ratioP2;P2;SDS_P1;SDS_P2;PMS_P1;PMS_P2;Temp;Humidity;BMP_temperature;BMP_pressure;BME280_temperature;BME280_humidity;BME280_pressure;Samples;Min_cycle;Max_cycle;Signal;HPM_P1;HPM_P2
2022/08/21 00:02:28;;;;;;;10.80;5.95;;;;;;;22.52;62.67;99942.34;1820007;78;28055;-66
2022/08/21 00:04:54;;;;;;;11.35;5.78;;;;;;;22.51;62.68;99947.67;1819710;78;25610;-66
2022/08/21 00:07:21;;;;;;;11.68;5.97;;;;;;;22.47;62.73;99944.73;1818642;78;25539;-66
2022/08/21 00:09:48;;;;;;;11.35;7.30;;;;;;;22.46;62.91;99945.90;1812045;78;25629;-66
2022/08/21 00:12:14;;;;;;;9.38;5.28;;;;;;;22.43;63.08;99943.36;1810573;78;25698;-66
2022/08/21 00:14:40;;;;;;;9.08;6.83;;;;;;;22.42;63.36;99945.91;1800895;78;28222;-66
2022/08/21 00:17:07;;;;;;;9.03;6.12;;;;;;;22.37;63.27;99938.86;1795708;78;25602;-66
2022/08/21 00:19:34;;;;;;;8.38;5.85;;;;;;;22.33;63.16;99940.83;1820228;78;25646;-66
2022/08/21 00:22:00;;;;;;;9.50;5.78;;;;;;;22.30;63.39;99939.45;1820782;78;25558;-67
2022/08/21 00:24:27;;;;;;;7.75;6.03;;;;;;;22.22;63.29;99935.92;1807937;78;25561;-66
2022/08/21 00:26:54;;;;;;;10.08;5.70;;;;;;;22.19;63.63;99939.47;1807201;78;27476;-66
2022/08/21 00:29:20;;;;;;;8.15;6.30;;;;;;;22.17;63.67;99937.10;1803375;78;25697;-66
2022/08/21 00:31:47;;;;;;;9.23;5.85;;;;;;;22.13;63.71;99930.02;1812690;78;25420;-66
2022/08/21 00:34:14;;;;;;;6.78;5.85;;;;;;;22.11;63.79;99921.38;1800878;78;26273;-66
2022/08/21 00:36:41;;;;;;;6.95;5.47;;;;;;;22.08;64.16;99915.28;1815873;78;25564;-66
2022/08/21 00:39:08;;;;;;;6.42;5.78;;;;;;;22.04;64.02;99914.52;1811985;78;28042;-66
2022/08/21 00:41:37;;;;;;;6.83;5.58;;;;;;;21.99;63.99;99915.09;1821020;78;25633;-66
2022/08/21 00:44:05;;;;;;;6.35;5.75;;;;;;;21.96;64.10;99911.78;1820410;78;25673;-66
2022/08/21 00:46:31;;;;;;;8.08;6.12;;;;;;;21.94;64.10;99915.49;1808684;78;25553;-66
2022/08/21 00:48:58;;;;;;;8.40;5.87;;;;;;;21.93;64.36;99910.37;1806785;78;25489;-66
2022/08/21 00:51:35;;;;;;;8.25;5.72;;;;;;;21.89;64.33;99906.26;1800197;78;27058;-66
2022/08/21 00:54:04;;;;;;;10.03;5.60;;;;;;;21.87;64.52;99903.72;1815970;78;25879;-66
2022/08/21 00:56:30;;;;;;;6.35;5.10;;;;;;;21.84;64.52;99897.02;1816065;78;25612;-65
2022/08/21 00:59:00;;;;;;;9.18;5.25;;;;;;;21.81;64.57;99896.43;1801623;78;27710;-65
2022/08/21 01:01:27;;;;;;;6.05;5.47;;;;;;;21.80;64.55;99899.00;1813335;78;25514;-65
2022/08/21 01:03:54;;;;;;;7.33;5.58;;;;;;;21.78;64.69;99896.64;1817740;78;27543;-66
2022/08/21 01:06:20;;;;;;;7.83;5.55;;;;;;;21.77;64.79;99898.41;1816066;78;25756;-65
2022/08/21 01:08:48;;;;;;;9.43;5.90;;;;;;;21.75;64.84;99900.78;1808974;78;25554;-65
2022/08/21 01:11:15;;;;;;;9.80;5.78;;;;;;;21.73;64.87;99900.39;1822845;78;25535;-65
2022/08/21 01:13:46;;;;;;;9.10;5.80;;;;;;;21.74;65.05;99897.25;1814763;78;25624;-65
2022/08/21 01:16:16;;;;;;;6.55;5.40;;;;;;;21.71;65.07;99904.91;1822790;78;27490;-66
2022/08/21 01:18:44;;;;;;;6.00;5.40;;;;;;;21.69;65.26;99902.34;1820946;78;25388;-65
2022/08/21 01:21:16;;;;;;;8.88;5.80;;;;;;;21.68;65.23;99903.55;1822126;78;25449;-64
2022/08/21 01:23:47;;;;;;;8.45;5.92;;;;;;;21.70;65.25;99899.20;1794170;78;25542;-64
2022/08/21 01:26:17;;;;;;;9.15;5.72;;;;;;;21.69;65.19;99895.47;1795480;78;25373;-64
2022/08/21 01:29:07;;;;;;;8.48;6.08;;;;;;;21.70;65.29;99893.70;1796376;78;28071;-65
2022/08/21 01:31:34;;;;;;;8.63;5.67;;;;;;;21.72;65.44;99891.93;1791812;78;25751;-65
2022/08/21 01:34:01;;;;;;;7.67;5.30;;;;;;;21.74;65.41;99895.88;1810573;78;25416;-65
2022/08/21 01:36:28;;;;;;;8.15;5.95;;;;;;;21.77;65.39;99895.66;1805257;78;26305;-65
2022/08/21 01:38:55;;;;;;;9.13;5.70;;;;;;;21.75;65.27;99893.91;1790457;78;25626;-65
2022/08/21 01:41:22;;;;;;;7.55;5.30;;;;;;;21.75;65.24;99893.30;1819858;78;27518;-65
2022/08/21 01:43:48;;;;;;;7.95;5.42;;;;;;;21.75;65.23;99892.52;1799141;78;25618;-65
2022/08/21 01:46:15;;;;;;;6.37;5.62;;;;;;;21.72;65.32;99887.80;1791747;78;25535;-65
2022/08/21 01:48:43;;;;;;;7.62;6.03;;;;;;;21.70;65.33;99884.66;1791789;78;25558;-65
2022/08/21 01:51:10;;;;;;;6.62;5.45;;;;;;;21.68;65.38;99882.91;1808294;78;25683;-65
2022/08/21 01:53:38;;;;;;;8.73;6.20;;;;;;;21.63;65.37;99868.94;1812872;78;28216;-65
2022/08/21 01:56:09;;;;;;;8.98;5.95;;;;;;;21.59;65.38;99873.08;1801821;78;25693;-65
2022/08/21 01:58:36;;;;;;;8.13;6.15;;;;;;;21.55;65.44;99869.52;1811481;78;25545;-65
2022/08/21 02:01:04;;;;;;;7.17;4.90;;;;;;;21.54;65.57;99874.84;1793788;78;26030;-65
2022/08/21 02:03:31;;;;;;;5.67;5.05;;;;;;;21.53;65.67;99876.02;1818693;78;25554;-65
2022/08/21 02:05:57;;;;;;;6.03;5.20;;;;;;;21.52;65.80;99875.03;1818243;78;28411;-65
2022/08/21 02:08:24;;;;;;;8.40;6.70;;;;;;;21.52;65.87;99880.53;1805698;78;25992;-65
2022/08/21 02:10:52;;;;;;;7.78;5.67;;;;;;;21.52;65.80;99877.78;1802409;78;25385;-65
2022/08/21 02:13:20;;;;;;;6.22;5.62;;;;;;;21.51;66.00;99880.36;1807386;78;25497;-65
2022/08/21 02:15:46;;;;;;;9.48;6.10;;;;;;;21.50;66.14;99875.42;1809638;78;25590;-65
2022/08/21 02:18:12;;;;;;;9.73;6.15;;;;;;;21.47;66.00;99867.98;1821943;78;27114;-65
2022/08/21 02:20:43;;;;;;;11.50;7.45;;;;;;;21.44;66.15;99865.38;1812787;78;25360;-66
2022/08/21 02:23:11;;;;;;;7.53;6.22;;;;;;;21.40;66.20;99856.92;1786355;78;25823;-66
2022/08/21 02:25:39;;;;;;;9.03;6.50;;;;;;;21.36;66.22;99860.27;1811956;78;26095;-66
2022/08/21 02:28:10;;;;;;;6.35;5.72;;;;;;;21.32;66.25;99863.03;1808219;78;25605;-66
2022/08/21 02:30:41;;;;;;;7.75;5.78;;;;;;;21.30;66.30;99863.20;1801992;78;27514;-66
2022/08/21 02:33:09;;;;;;;8.13;6.22;;;;;;;;;;1817561;78;25655;-66
2022/08/21 02:35:37;;;;;;;8.93;5.60;;;;;;;21.25;66.49;99854.19;1798685;78;25423;-66
2022/08/21 02:38:08;;;;;;;7.58;5.47;;;;;;;21.23;66.55;99855.17;1808233;78;25698;-66
2022/08/21 02:40:37;;;;;;;5.90;5.30;;;;;;;21.24;66.68;99851.82;1793077;78;25581;-66
2022/08/21 02:43:06;;;;;;;7.70;5.22;;;;;;;21.23;66.80;99852.42;1791856;78;27548;-66
2022/08/21 02:45:35;;;;;;;7.30;5.30;;;;;;;21.22;66.72;99854.19;1791997;78;25436;-66
2022/08/21 02:48:06;;;;;;;9.10;5.60;;;;;;;21.19;66.66;99850.23;1791909;78;25680;-66
2022/08/21 02:50:38;;;;;;;8.45;5.90;;;;;;;21.16;66.76;99846.11;1792295;78;25621;-66
2022/08/21 02:53:06;;;;;;;8.68;6.05;;;;;;;21.13;66.77;99839.45;1813220;78;25654;-66
2022/08/21 02:55:35;;;;;;;8.63;6.17;;;;;;;21.11;66.80;99834.13;1801906;78;27464;-66
2022/08/21 02:58:02;;;;;;;8.40;6.17;;;;;;;21.07;66.97;99836.88;1822856;78;25657;-66
2022/08/21 03:00:30;;;;;;;9.28;5.92;;;;;;;21.02;67.01;99830.39;1817188;78;25676;-67
2022/08/21 03:02:58;;;;;;;7.42;5.58;;;;;;;20.96;66.96;99827.25;1814813;78;25374;-66
2022/08/21 03:05:26;;;;;;;9.98;5.42;;;;;;;20.93;67.12;99827.25;1818733;78;25557;-66
2022/08/21 03:07:53;;;;;;;8.80;5.50;;;;;;;20.87;67.14;99828.20;1796586;78;28028;-66
2022/08/21 03:10:22;;;;;;;8.05;5.58;;;;;;;20.84;67.33;99831.73;1816738;78;25703;-66
2022/08/21 03:12:49;;;;;;;8.35;5.67;;;;;;;20.82;67.45;99833.52;1818549;78;25537;-66
2022/08/21 03:15:20;;;;;;;8.65;5.72;;;;;;;20.82;67.68;99835.46;1819062;78;25696;-66
2022/08/21 03:17:47;;;;;;;8.70;5.53;;;;;;;20.77;67.54;99834.47;1821679;78;25632;-66
2022/08/21 03:20:18;;;;;;;8.53;5.45;;;;;;;20.73;67.51;99835.84;1816652;78;27514;-66
2022/08/21 03:22:44;;;;;;;9.28;5.45;;;;;;;20.68;67.40;99826.00;1802866;78;25679;-66
2022/08/21 03:25:11;;;;;;;8.33;5.47;;;;;;;20.61;67.52;99829.31;1797851;78;25788;-66
2022/08/21 03:27:37;;;;;;;8.28;5.42;;;;;;;20.57;67.77;99830.67;1809965;78;27551;-65
2022/08/21 03:30:07;;;;;;;5.90;5.25;;;;;;;20.53;68.03;99830.66;1814119;78;25573;-65
2022/08/21 03:32:35;;;;;;;6.10;5.50;;;;;;;20.52;68.07;99831.05;1791827;78;28202;-65
2022/08/21 03:35:04;;;;;;;7.72;5.65;;;;;;;20.48;68.25;99828.30;1791726;78;25626;-65
2022/08/21 03:37:30;;;;;;;6.60;5.72;;;;;;;20.46;68.35;99835.34;1791945;78;25389;-65
2022/08/21 03:39:56;;;;;;;6.20;4.62;;;;;;;20.46;68.58;99839.45;1794671;78;25514;-65
2022/08/21 03:42:23;;;;;;;8.88;5.70;;;;;;;20.44;68.54;99835.72;1823085;78;25518;-65
2022/08/21 03:44:49;;;;;;;8.43;5.72;;;;;;;20.43;68.70;99833.36;1818433;77;27670;-65
2022/08/21 03:47:16;;;;;;;8.13;6.17;;;;;;;20.43;68.74;99827.86;1816795;77;27302;-65
2022/08/21 03:49:42;;;;;;;5.97;5.17;;;;;;;20.41;68.80;99826.88;1814219;78;25439;-66
2022/08/21 03:52:08;;;;;;;7.22;5.83;;;;;;;20.38;68.77;99829.05;1821442;78;25743;-67
2022/08/21 03:54:34;;;;;;;7.50;5.62;;;;;;;20.35;68.95;99832.56;1820400;77;25656;-66
2022/08/21 03:57:01;;;;;;;8.83;5.95;;;;;;;20.33;69.03;99834.91;1797501;78;27531;-66
2022/08/21 03:59:27;;;;;;;8.45;5.83;;;;;;;20.31;69.04;99830.37;1817283;78;25373;-66
2022/08/21 04:01:59;;;;;;;8.68;6.00;;;;;;;20.29;69.09;99831.34;1826181;77;25794;-64
2022/08/21 04:04:28;;;;;;;7.72;6.17;;;;;;;20.28;69.50;99832.53;1826759;77;25720;-66
2022/08/21 04:06:56;;;;;;;8.83;6.40;;;;;;;20.23;69.60;99829.56;1820890;77;25411;-66
2022/08/21 04:09:24;;;;;;;7.30;5.77;;;;;;;20.22;69.61;99834.07;1797898;78;27508;-66
2022/08/21 04:11:50;;;;;;;8.05;6.15;;;;;;;20.19;69.64;99843.84;1819030;78;25669;-66
2022/08/21 04:14:18;;;;;;;9.80;5.85;;;;;;;20.18;69.89;99836.02;1815681;77;25668;-67
2022/08/21 04:16:45;;;;;;;8.25;5.45;;;;;;;20.17;69.93;99839.33;1822066;78;25695;-67
2022/08/21 04:19:15;;;;;;;8.15;6.50;;;;;;;20.17;70.07;99830.32;1818373;78;25584;-65
2022/08/21 04:21:42;;;;;;;11.38;6.20;;;;;;;20.14;70.12;99831.30;1827579;78;28038;-65
2022/08/21 04:24:10;;;;;;;8.93;5.80;;;;;;;20.13;70.26;99829.71;1813252;78;25433;-65
2022/08/21 04:26:39;;;;;;;6.90;5.42;;;;;;;20.13;70.50;99841.29;1815406;77;25665;-65
2022/08/21 04:29:06;;;;;;;7.20;5.70;;;;;;;20.11;70.57;99837.55;1800601;78;25382;-65
2022/08/21 04:31:36;;;;;;;7.15;5.53;;;;;;;20.12;70.59;99835.59;1823689;77;25395;-65
2022/08/21 04:34:04;;;;;;;8.85;5.75;;;;;;;20.14;70.80;99838.16;1820868;78;27561;-65
2022/08/21 04:36:33;;;;;;;6.50;5.37;;;;;;;20.18;71.02;99829.16;1812110;78;25820;-65
2022/08/21 04:38:59;;;;;;;8.77;5.80;;;;;;;20.19;70.92;99831.49;1799526;78;25460;-65
2022/08/21 04:41:26;;;;;;;8.25;6.40;;;;;;;20.22;71.15;99834.07;1797537;78;25617;-66
2022/08/21 04:43:52;;;;;;;8.05;5.83;;;;;;;20.21;71.15;99832.48;1809142;78;25367;-65
2022/08/21 04:46:18;;;;;;;6.12;5.37;;;;;;;20.25;71.18;99827.81;1809703;78;27670;-65
2022/08/21 04:48:45;;;;;;;7.60;5.72;;;;;;;20.30;71.28;99834.30;1797601;78;25530;-66
2022/08/21 04:51:19;;;;;;;6.45;5.75;;;;;;;20.31;71.20;99833.92;1813790;78;25630;-65
2022/08/21 04:53:56;;;;;;;5.95;5.35;;;;;;;20.35;71.39;99831.19;1808861;78;25549;-65
2022/08/21 04:56:36;;;;;;;8.10;5.78;;;;;;;20.40;71.47;99824.52;1797401;77;25792;-65
2022/08/21 04:59:07;;;;;;;7.85;6.05;;;;;;;20.43;71.30;99826.48;1797602;78;29639;-65
2022/08/21 05:01:35;;;;;;;7.10;5.70;;;;;;;20.46;71.45;99825.13;1825430;78;25622;-65
2022/08/21 05:04:04;;;;;;;6.83;6.08;;;;;;;20.51;71.46;99818.48;1827657;77;25385;-65
2022/08/21 05:06:36;;;;;;;6.37;5.58;;;;;;;20.55;71.40;99819.30;1819133;77;25527;-65
2022/08/21 05:09:04;;;;;;;7.50;5.90;;;;;;;20.60;71.58;99811.23;1825633;78;25637;-65
2022/08/21 05:11:32;;;;;;;7.10;5.17;;;;;;;20.66;71.35;99819.34;1824767;78;27524;-65
2022/08/21 05:13:59;;;;;;;10.35;6.40;;;;;;;20.67;71.18;99825.83;1827532;78;25565;-65
2022/08/21 05:16:26;;;;;;;6.75;5.47;;;;;;;20.73;71.37;99830.34;1818208;77;25705;-65
2022/08/21 05:18:52;;;;;;;6.97;5.70;;;;;;;20.81;71.34;99831.16;1819819;77;26115;-65
2022/08/21 05:21:18;;;;;;;12.95;6.47;;;;;;;20.87;71.28;99826.83;1819156;78;25393;-64
2022/08/21 05:23:44;;;;;;;8.13;5.40;;;;;;;20.92;71.21;99831.16;1814637;77;27447;-64
2022/08/21 05:26:10;;;;;;;8.10;6.05;;;;;;;20.99;71.35;99831.95;1820352;78;25500;-65
2022/08/21 05:28:36;;;;;;;8.15;5.78;;;;;;;21.05;71.03;99833.14;1822702;77;25689;-64
2022/08/21 05:31:03;;;;;;;9.13;6.17;;;;;;;21.13;71.15;99833.14;1824342;78;25628;-65
2022/08/21 05:33:30;;;;;;;7.65;5.80;;;;;;;21.26;71.23;99840.61;1825290;77;25720;-65
2022/08/21 05:35:56;;;;;;;5.90;5.30;;;;;;;21.40;71.31;99843.17;1807181;78;29606;-65
2022/08/21 05:38:25;;;;;;;7.33;5.75;;;;;;;21.53;70.94;99845.75;1827385;77;25893;-65
2022/08/21 05:40:51;;;;;;;6.72;5.33;;;;;;;21.65;70.96;99847.31;1796159;77;25531;-65
2022/08/21 05:43:17;;;;;;;8.13;6.42;;;;;;;21.81;70.97;99854.57;1791804;78;25577;-65
2022/08/21 05:45:44;;;;;;;9.33;5.60;;;;;;;21.97;70.58;99856.89;1808362;78;25382;-65
2022/08/21 05:48:23;;;;;;;11.08;5.90;;;;;;;22.12;70.43;99853.51;1791866;78;28217;-65
2022/08/21 05:50:52;;;;;;;13.32;6.50;;;;;;;22.28;70.14;99853.69;1790400;78;25610;-66
2022/08/21 05:53:21;;;;;;;7.97;6.20;;;;;;;22.44;69.92;99851.84;1813949;78;32760;-66
2022/08/21 05:55:47;;;;;;;6.90;6.28;;;;;;;22.60;69.46;99849.41;1802415;78;25475;-66
2022/08/21 05:58:20;;;;;;;7.60;5.60;;;;;;;22.71;68.87;99841.87;1809331;78;25412;-66
2022/08/21 06:00:49;;;;;;;6.53;5.45;;;;;;;22.83;68.62;99843.38;1821886;78;27399;-67
2022/08/21 06:03:23;;;;;;;11.03;5.72;;;;;;;22.97;68.32;99846.63;1802540;78;25530;-66
2022/08/21 06:05:50;;;;;;;9.50;5.87;;;;;;;23.09;67.72;99844.02;1812648;78;25381;-66
2022/08/21 06:08:18;;;;;;;6.45;5.70;;;;;;;23.14;67.35;99839.45;1797755;78;25604;-66
2022/08/21 06:10:46;;;;;;;8.25;5.53;;;;;;;23.25;67.07;99834.62;1801632;78;25644;-66
2022/08/21 06:13:14;;;;;;;11.05;5.40;;;;;;;23.36;67.07;99837.31;1812257;78;27530;-66
2022/08/21 06:15:41;;;;;;;10.70;6.25;;;;;;;23.49;66.71;99838.35;1823098;78;25581;-66
2022/08/21 06:18:08;;;;;;;9.93;5.95;;;;;;;23.61;66.44;99837.66;1794484;78;25604;-66
2022/08/21 06:20:35;;;;;;;8.35;5.47;;;;;;;23.73;66.02;99841.28;1798412;78;25501;-67
2022/08/21 06:23:02;;;;;;;7.58;5.92;;;;;;;23.84;65.78;99846.75;1812268;78;25519;-66
2022/08/21 06:25:29;;;;;;;9.18;5.70;;;;;;;23.91;65.16;99846.67;1807311;78;27602;-67
2022/08/21 06:28:05;;;;;;;6.17;5.10;;;;;;;23.96;64.96;99844.84;1805205;78;27366;-66
2022/08/21 06:30:32;;;;;;;9.93;6.12;;;;;;;24.03;64.65;99849.50;1814785;78;25466;-66
2022/08/21 06:32:58;;;;;;;6.65;5.58;;;;;;;24.12;64.54;99847.02;1818473;78;25651;-66
2022/08/21 06:35:25;;;;;;;16.52;12.40;;;;;;;24.19;64.44;99850.30;1812896;78;25692;-66
2022/08/21 06:37:51;;;;;;;7.85;5.60;;;;;;;24.25;64.24;99845.89;1821627;78;27475;-66
2022/08/21 06:40:18;;;;;;;16.17;5.85;;;;;;;24.38;64.46;99853.02;1801467;78;25408;-67
2022/08/21 06:42:44;;;;;;;8.80;5.60;;;;;;;24.52;64.38;99852.86;1800247;78;25558;-67
2022/08/21 06:45:11;;;;;;;6.40;5.45;;;;;;;24.66;63.79;99855.28;1811296;78;25567;-67
2022/08/21 06:47:37;;;;;;;7.97;5.55;;;;;;;24.77;63.65;99854.52;1815777;78;25405;-67
2022/08/21 06:50:07;;;;;;;6.42;5.17;;;;;;;24.95;63.47;99855.05;1814189;78;27465;-66
2022/08/21 06:52:35;;;;;;;10.90;5.55;;;;;;;25.13;63.25;99858.13;1808651;78;25616;-66
2022/08/21 06:55:04;;;;;;;9.80;6.20;;;;;;;25.38;62.88;99857.77;1810576;78;34687;-67
2022/08/21 06:57:30;;;;;;;5.78;5.15;;;;;;;25.61;62.31;99861.14;1808245;78;25505;-67
2022/08/21 06:59:57;;;;;;;6.97;5.67;;;;;;;25.84;62.08;99854.78;1810465;78;25555;-66
2022/08/21 07:02:23;;;;;;;10.93;5.92;;;;;;;26.10;61.34;99857.88;1821760;78;27514;-66
2022/08/21 07:04:50;;;;;;;7.67;5.90;;;;;;;26.31;61.01;99851.75;1823033;78;25743;-66
2022/08/21 07:07:17;;;;;;;7.58;5.47;;;;;;;26.50;60.08;99852.33;1806597;78;25606;-66
2022/08/21 07:09:43;;;;;;;10.88;6.25;;;;;;;26.72;59.38;99856.06;1790822;77;27656;-67
2022/08/21 07:12:10;;;;;;;8.70;5.60;;;;;;;26.91;59.51;99859.98;1812982;78;25550;-67
2022/08/21 07:14:36;;;;;;;6.80;5.12;;;;;;;27.14;58.82;99855.67;1792062;78;27496;-67
2022/08/21 07:17:03;;;;;;;8.55;5.30;;;;;;;27.35;58.34;99857.16;1791789;78;25664;-67
2022/08/21 07:19:29;;;;;;;8.85;5.47;;;;;;;27.52;57.42;99857.93;1800841;78;25717;-67
2022/08/21 07:22:00;;;;;;;6.87;5.35;;;;;;;27.61;57.03;99862.09;1810172;78;25303;-67
2022/08/21 07:24:26;;;;;;;6.53;5.50;;;;;;;27.69;56.95;99864.24;1816476;78;25563;-67
2022/08/21 07:26:53;;;;;;;10.82;5.97;;;;;;;27.82;56.30;99867.09;1804939;78;27547;-71
2022/08/21 07:29:19;;;;;;;8.15;7.33;;;;;;;27.94;56.01;99860.03;1800552;78;25181;-70
2022/08/21 07:31:46;;;;;;;8.30;7.05;;;;;;;28.05;55.78;99861.14;1801346;78;25532;-70
2022/08/21 07:34:13;;;;;;;8.50;6.33;;;;;;;28.22;55.57;99853.52;1790126;78;25639;-70
2022/08/21 07:36:40;;;;;;;8.13;6.05;;;;;;;28.37;55.26;99853.27;1808751;78;25664;-71
2022/08/21 07:39:06;;;;;;;7.65;5.80;;;;;;;28.56;55.16;99850.78;1818569;78;28113;-70
2022/08/21 07:41:35;;;;;;;7.65;6.60;;;;;;;28.77;54.89;99849.34;1824265;78;25598;-70
2022/08/21 07:44:01;;;;;;;6.37;5.78;;;;;;;29.00;54.29;99852.41;1802700;77;29716;-70
2022/08/21 07:46:27;;;;;;;6.53;5.87;;;;;;;29.23;53.82;99850.68;1803944;78;25495;-70
2022/08/21 07:48:54;;;;;;;9.13;5.60;;;;;;;29.51;53.64;99848.75;1820921;78;25719;-68
2022/08/21 07:51:27;;;;;;;6.83;4.87;;;;;;;29.82;52.97;99850.30;1820116;78;26205;-69
2022/08/21 07:53:57;;;;;;;11.28;5.62;;;;;;;30.07;52.22;99847.22;1824463;78;25585;-69
2022/08/21 07:56:24;;;;;;;7.75;5.28;;;;;;;30.21;50.76;99847.33;1804937;78;25527;-69
2022/08/21 07:58:50;;;;;;;7.70;5.17;;;;;;;30.24;50.58;99841.63;1809018;78;25701;-69
2022/08/21 08:01:18;;;;;;;6.78;4.62;;;;;;;30.47;51.04;99833.39;1797495;78;25614;-70
2022/08/21 08:03:45;;;;;;;5.60;4.97;;;;;;;30.77;50.14;99837.23;1804353;78;27558;-68
2022/08/21 08:06:16;;;;;;;10.75;6.42;;;;;;;31.01;49.79;99839.69;1801702;77;25445;-69
2022/08/21 08:08:43;;;;;;;5.72;5.00;;;;;;;31.23;49.02;99836.02;1813956;78;25545;-68
2022/08/21 08:11:10;;;;;;;12.18;6.33;;;;;;;31.36;48.42;99839.43;1827757;78;25624;-69
2022/08/21 08:13:43;;;;;;;13.00;8.20;;;;;;;31.58;48.33;99835.13;1828733;78;25735;-69
2022/08/21 08:16:09;;;;;;;9.65;5.25;;;;;;;31.86;47.43;99828.76;1807531;78;27537;-69
2022/08/21 08:18:36;;;;;;;4.90;4.50;;;;;;;32.06;47.00;99825.50;1812708;78;25408;-69
2022/08/21 08:21:03;;;;;;;7.03;4.37;;;;;;;32.29;46.72;99822.67;1806409;78;25727;-70
2022/08/21 08:23:30;;;;;;;4.78;4.30;;;;;;;32.66;45.23;99814.14;1806235;78;25689;-68
2022/08/21 08:25:57;;;;;;;4.67;3.72;;;;;;;32.66;45.23;99814.14;1804753;78;25588;-69
2022/08/21 08:28:25;;;;;;;6.28;4.12;;;;;;;32.75;44.21;99814.12;1824430;78;27548;-69
2022/08/21 08:30:52;;;;;;;4.80;4.10;;;;;;;32.91;44.39;99814.33;1815300;78;25832;-68
2022/08/21 08:33:19;;;;;;;5.17;4.37;;;;;;;33.05;43.89;99808.65;1826797;78;25529;-68
2022/08/21 08:35:49;;;;;;;5.03;4.05;;;;;;;33.23;43.19;99812.77;1827088;78;25771;-70
2022/08/21 08:38:19;;;;;;;9.30;4.22;;;;;;;33.29;41.81;99811.50;1818000;78;25701;-69
2022/08/21 08:40:53;;;;;;;7.28;3.70;;;;;;;33.20;42.04;99812.95;1817963;77;27426;-69
2022/08/21 08:43:20;;;;;;;5.65;4.17;;;;;;;33.37;41.80;99809.86;1795705;78;25808;-70
2022/08/21 08:45:51;;;;;;;5.78;3.50;;;;;;;33.37;41.80;99809.86;1813281;78;25583;-70
2022/08/21 08:48:53;;;;;;;6.95;3.87;;;;;;;33.43;40.81;99813.55;1806325;78;25540;-69
2022/08/21 08:51:37;;;;;;;8.93;4.12;;;;;;;33.46;40.69;99814.01;1813223;78;25719;-69
2022/08/21 08:54:08;;;;;;;4.97;3.50;;;;;;;33.62;40.65;99812.77;1810305;78;27482;-71
2022/08/21 08:56:36;;;;;;;6.97;4.10;;;;;;;33.79;40.39;99806.75;1804491;78;25893;-68
2022/08/21 08:59:16;;;;;;;4.17;3.62;;;;;;;34.01;40.36;99806.38;1817895;78;25706;-71
2022/08/21 09:01:42;;;;;;;3.95;3.55;;;;;;;34.10;39.71;99809.08;1727350;81;26718;-70
2022/08/21 09:04:12;;;;;;;4.47;3.52;;;;;;;33.98;39.11;99804.53;1756175;80;25743;-69
2022/08/21 09:07:02;;;;;;;4.80;4.30;;;;;;;33.80;39.59;99813.28;1752412;80;27524;-69
2022/08/21 09:10:04;;;;;;;5.35;4.75;;;;;;;33.65;39.37;99809.02;1759292;80;25575;-70
2022/08/21 09:12:54;;;;;;;5.75;3.75;;;;;;;33.44;39.77;99808.11;1753428;81;25397;-67
2022/08/21 09:15:50;;;;;;;6.60;4.05;;;;;;;33.72;40.37;99805.73;1769048;80;25552;-69
2022/08/21 09:18:25;;;;;;;6.30;3.87;;;;;;;34.24;39.93;99801.94;1762736;80;25573;-71
2022/08/21 09:21:21;;;;;;;5.78;3.75;;;;;;;34.65;38.64;99809.71;1753017;80;28223;-70
2022/08/21 09:23:59;;;;;;;4.08;3.70;;;;;;;34.69;38.05;99806.09;1710369;83;25752;-67
2022/08/21 09:26:34;;;;;;;3.62;3.33;;;;;;;34.87;38.30;99800.25;1736866;82;25823;-68
2022/08/21 09:29:00;;;;;;;5.00;3.40;;;;;;;35.24;37.99;99802.53;1736227;82;25641;-70
2022/08/21 09:31:34;;;;;;;5.97;3.95;;;;;;;35.45;37.44;99807.52;1722867;82;25725;-69
2022/08/21 09:34:08;;;;;;;5.83;4.22;;;;;;;35.59;37.37;99798.84;1724974;82;27560;-69
2022/08/21 09:36:45;;;;;;;3.30;3.08;;;;;;;35.87;36.56;99802.59;1702397;82;25728;-68
2022/08/21 09:44:28;;;;;;;5.83;4.28;;;;;;;36.50;35.38;99802.51;1799853;77;25724;-67
2022/08/21 09:46:55;;;;;;;4.28;3.50;;;;;;;36.42;35.29;99796.55;1774006;79;25709;-69
2022/08/21 09:49:36;;;;;;;3.42;3.12;;;;;;;36.55;35.09;99795.50;1766380;80;27569;-70
2022/08/21 09:52:07;;;;;;;5.62;3.72;;;;;;;36.49;34.78;99795.32;1764811;80;25724;-68
2022/08/21 09:54:39;;;;;;;3.47;3.17;;;;;;;36.31;34.16;99796.48;1775761;80;25623;-66
2022/08/21 10:00:25;;;;;;;4.30;3.90;;;;;;;36.24;34.11;99791.44;1767625;79;25727;-70
2022/08/21 10:02:52;;;;;;;3.72;3.30;;;;;;;36.01;34.00;99792.49;1777262;80;27536;-69
2022/08/21 10:05:26;;;;;;;3.65;3.12;;;;;;;36.09;34.52;99792.19;1769085;80;25731;-69
2022/08/21 10:07:53;;;;;;;3.45;3.02;;;;;;;35.96;34.01;99789.78;1755236;80;25722;-69
2022/08/21 10:10:28;;;;;;;5.25;2.72;;;;;;;35.60;34.05;99786.95;1780602;80;25517;-69
2022/08/21 10:13:24;;;;;;;4.87;3.40;;;;;;;35.21;34.17;99785.84;1770962;80;25613;-69
2022/08/21 10:16:02;;;;;;;4.28;3.17;;;;;;;34.82;34.33;99784.09;1762543;80;28068;-69
2022/08/21 10:19:00;;;;;;;31.50;5.17;;;;;;;34.27;34.69;99777.75;1772874;80;25777;-68
2022/08/21 10:21:35;;;;;;;11.65;3.33;;;;;;;33.89;35.24;99780.16;1774912;80;26454;-68
2022/08/21 10:24:23;;;;;;;7.30;3.17;;;;;;;33.42;35.84;99781.80;1772261;80;25650;-68
2022/08/21 10:27:07;;;;;;;4.10;3.17;;;;;;;33.07;36.36;99777.52;1760714;80;25645;-69
2022/08/21 10:29:45;;;;;;;5.50;3.70;;;;;;;32.71;36.74;99779.91;1767253;80;27807;-69
2022/08/21 10:32:48;;;;;;;7.03;3.55;;;;;;;32.43;37.48;99779.24;1775055;80;25877;-68
2022/08/21 10:35:33;;;;;;;6.22;3.50;;;;;;;32.26;37.78;99787.23;1781849;80;25601;-66
2022/08/21 10:38:30;;;;;;;5.78;4.08;;;;;;;32.41;38.31;99779.72;1776483;80;25707;-66
2022/08/21 10:41:11;;;;;;;4.10;3.25;;;;;;;32.45;38.32;99781.70;1775992;80;25773;-65
2022/08/21 10:44:00;;;;;;;4.22;3.83;;;;;;;32.42;38.35;99780.48;1750806;80;27951;-70
2022/08/21 10:46:40;;;;;;;4.00;3.62;;;;;;;32.28;38.71;99791.73;1740920;81;25814;-68
2022/08/21 10:49:18;;;;;;;3.65;3.37;;;;;;;32.05;38.34;99785.55;1741420;81;25720;-71
2022/08/21 10:52:25;;;;;;;3.87;3.23;;;;;;;31.87;38.65;99784.95;1737180;81;25822;-70
2022/08/21 10:55:06;;;;;;;5.65;3.40;;;;;;;31.74;38.94;99783.75;1740278;82;25679;-70
2022/08/21 10:57:56;;;;;;;3.92;3.42;;;;;;;31.72;38.69;99782.64;1740818;81;27791;-70
2022/08/21 11:00:28;;;;;;;5.83;3.58;;;;;;;31.81;39.39;99786.84;1741468;82;25539;-72
2022/08/21 11:03:08;;;;;;;3.47;3.17;;;;;;;32.28;39.69;99774.31;1741208;81;25698;-71
2022/08/21 11:05:52;;;;;;;3.62;3.33;;;;;;;32.86;39.49;99779.37;1740257;81;25682;-74
2022/08/21 11:08:39;;;;;;;3.42;3.12;;;;;;;33.54;38.50;99784.20;1739322;81;26264;-74
2022/08/21 11:11:23;;;;;;;3.77;3.15;;;;;;;34.28;37.83;99794.11;1726689;81;27463;-72
2022/08/21 11:13:53;;;;;;;6.37;5.40;;;;;;;34.54;37.32;99778.80;1740173;81;25804;-69
2022/08/21 11:16:25;;;;;;;3.67;3.12;;;;;;;34.63;36.37;99769.48;1740657;81;25638;-68
2022/08/21 11:19:15;;;;;;;9.25;3.08;;;;;;;34.83;35.53;99767.37;1718709;82;25786;-67
2022/08/21 11:21:50;;;;;;;3.60;2.85;;;;;;;35.10;35.17;99763.38;1739383;82;25780;-66
2022/08/21 11:24:38;;;;;;;3.85;2.70;;;;;;;35.59;34.73;99769.32;1741834;81;27585;-68
2022/08/21 11:27:26;;;;;;;5.08;2.72;;;;;;;35.92;34.32;99764.54;1740488;81;26263;-69
2022/08/21 11:29:58;;;;;;;2.67;2.47;;;;;;;36.27;33.66;99762.30;1741323;81;25746;-68
2022/08/21 11:33:02;;;;;;;3.85;2.62;;;;;;;36.58;32.88;99756.48;1741185;81;25651;-67
2022/08/21 11:35:53;;;;;;;2.62;2.40;;;;;;;36.72;32.29;99754.79;1737444;81;25669;-69
2022/08/21 11:38:48;;;;;;;2.77;2.58;;;;;;;36.89;32.51;99750.64;1739422;81;28446;-68
2022/08/21 11:41:22;;;;;;;7.95;3.35;;;;;;;37.24;31.69;99754.38;1711644;80;25907;-69
2022/08/21 11:44:12;;;;;;;5.33;3.27;;;;;;;37.48;32.04;99751.90;1725516;82;25631;-70
2022/08/21 11:46:58;;;;;;;3.98;3.05;;;;;;;37.54;31.97;99754.07;1731026;82;25864;-70
2022/08/21 11:49:57;;;;;;;2.92;2.72;;;;;;;37.87;31.90;99759.67;1723539;82;25798;-70
2022/08/21 11:52:37;;;;;;;3.60;2.87;;;;;;;38.06;31.22;99757.75;1724007;82;27281;-69
2022/08/21 11:55:42;;;;;;;3.40;2.58;;;;;;;38.29;30.78;99758.52;1726989;82;26111;-66
2022/08/21 11:58:24;;;;;;;3.70;3.37;;;;;;;38.35;30.78;99759.94;1741214;82;25612;-68
2022/08/21 12:00:56;;;;;;;3.85;3.15;;;;;;;38.40;30.15;99758.50;1740261;82;25655;-69
2022/08/21 12:03:29;;;;;;;2.67;2.47;;;;;;;38.44;30.45;99763.23;1736545;82;25742;-69